首页
METAR-TAF:

METAR-TAF

机场 :

Hay River, 西北特區, 加拿大

纬度: 60-50N, 经度: 115-47W, 海拔: 164米

当前天气观测

该预报发布于57分钟前的09:00 UTC
风速5节,风向,在西转西北东北之间变化
温度 1°C
湿度 100%
气压 1001 hPa
能見度: 19.3公里
阴天层高于300英尺
小雨

METAR: CYHY 010900Z 01005KT 300V050 12SM -RA OVC003 01/01 A2957 RMK ST8 SLP025

时间: 03:57 (09:57 UTC)

预报

该预报发布于4小时和19分钟前的05:38 UTC
预报有效从01日的 06点(UTC)到 01日的 18点(UTC)
风速10节,风向东转东北
能見度: 9.7公里
散云层高于1000英尺
阴天层高于3000英尺
小雨, 轻雾
短暂存在
从 01日的 06点(UTC)到 01日的 15点(UTC)
能見度: 3.2公里
多云层高于500英尺
阴天层高于1000英尺
阵雨, 轻雾
几率 40%
从 01日的 06点(UTC)到 01日的 15点(UTC)
能見度: 0.8公里
层高于200英尺
从 01日的 1500点(UTC)
风速10节,风向西北
能見度: 9.7公里
散云层高于1000英尺
阴天层高于3000英尺
小雨, 轻雾
短暂存在
从 01日的 15点(UTC)到 01日的 18点(UTC)
能見度: 3.2公里
多云层高于500英尺
阴天层高于1000英尺
阵雨, 轻雾

TAF: CYHY 010538Z 0106/0118 07010KT 6SM -RA BR SCT010 OVC030 TEMPO 0106/0115 2SM SHRA BR BKN005 OVC010 PROB40 0106/0115 1/2SM FG VV002 FM011500 31010KT 6SM -RA BR SCT010 OVC030 TEMPO 0115/0118 2SM SHRA BR BKN005 OVC010 RMK NXT FCST BY 011200Z

超过4000个机场的气象观测和天气预报(METAR&TAF报告)。

可查询的气象台以黄色和红色小点在地图上表示。

将鼠标移到小点上方,可查看气象台名称。

然后点击查看天气观测和预报。

如需切换地图:点击带黑十字的绿色按钮放大地图;点击带横线的绿色按钮缩小地图;或者点击绿色箭头查看邻近地区的地图。


METAR-TAF: